createdAt,value
2019-04-28T00:01:51.299Z,26.15
2019-04-28T00:04:25.141Z,26.50
2019-04-28T00:07:01.847Z,27.05
2019-04-28T00:09:35.777Z,26.35
2019-04-28T00:12:10.987Z,28.57
2019-04-28T00:14:45.903Z,25.32
2019-04-28T00:17:21.107Z,27.45
2019-04-28T00:19:56.775Z,27.27
2019-04-28T00:22:41.916Z,26.87
2019-04-28T00:25:27.636Z,26.45
2019-04-28T00:28:01.679Z,25.70
2019-04-28T00:30:36.510Z,27.85
2019-04-28T00:33:16.474Z,29.75
2019-04-28T00:35:51.562Z,27.82
2019-04-28T00:38:25.307Z,29.18
2019-04-28T00:40:59.203Z,29.00
2019-04-28T00:43:33.900Z,28.70
2019-04-28T00:46:10.816Z,28.10
2019-04-28T00:48:45.275Z,29.50
2019-04-28T00:51:18.875Z,29.80
2019-04-28T00:53:52.765Z,30.15
2019-04-28T00:56:26.513Z,29.95
2019-04-28T00:59:01.619Z,30.55
2019-04-28T01:01:40.730Z,30.85
2019-04-28T01:04:15.239Z,29.55
2019-04-28T01:06:48.784Z,31.35
2019-04-28T01:09:22.803Z,29.90
2019-04-28T01:11:58.492Z,31.15
2019-04-28T01:14:32.511Z,31.00
2019-04-28T01:17:09.827Z,31.02
2019-04-28T01:19:46.954Z,32.28
2019-04-28T01:22:20.575Z,32.40
2019-04-28T01:24:54.186Z,33.55
2019-04-28T01:27:30.467Z,33.88
2019-04-28T01:30:09.155Z,31.55
2019-04-28T01:33:00.673Z,31.62
2019-04-28T01:35:34.596Z,34.25
2019-04-28T01:38:09.929Z,32.25
2019-04-28T01:40:43.454Z,29.18
2019-04-28T01:43:17.036Z,31.60
2019-04-28T01:45:50.662Z,30.37
2019-04-28T01:48:24.526Z,32.65
2019-04-28T01:50:59.781Z,32.55
2019-04-28T01:53:35.053Z,30.90
2019-04-28T01:56:10.494Z,32.38
2019-04-28T01:58:44.232Z,33.10
2019-04-28T02:01:17.831Z,30.55
2019-04-28T02:03:51.597Z,30.27
2019-04-28T02:06:25.559Z,32.05
2019-04-28T02:09:00.857Z,32.23
2019-04-28T02:11:36.364Z,33.73
2019-04-28T02:14:09.962Z,34.38
2019-04-28T02:16:43.894Z,34.60
2019-04-28T02:19:17.936Z,33.05
2019-04-28T02:21:53.225Z,32.65
2019-04-28T02:24:31.308Z,33.50
2019-04-28T02:27:06.117Z,34.63
2019-04-28T02:29:41.703Z,34.60
2019-04-28T02:32:15.715Z,33.75
2019-04-28T02:34:50.692Z,35.80
2019-04-28T02:37:25.533Z,36.45
2019-04-28T02:40:00.528Z,37.50
2019-04-28T02:42:34.704Z,36.40
2019-04-28T02:45:11.619Z,32.88
2019-04-28T02:47:44.822Z,36.03
2019-04-28T02:50:20.912Z,34.45
2019-04-28T02:52:55.334Z,33.67
2019-04-28T02:55:31.361Z,35.78
2019-04-28T02:58:04.337Z,37.70
2019-04-28T03:00:37.906Z,35.83
2019-04-28T03:03:11.519Z,33.83
2019-04-28T03:05:45.131Z,36.85
2019-04-28T03:08:21.252Z,33.80
2019-04-28T03:10:54.165Z,35.90
2019-04-28T03:13:30.900Z,35.75
2019-04-28T03:16:03.488Z,36.40
2019-04-28T03:18:41.054Z,36.63
2019-04-28T03:21:15.652Z,35.63
2019-04-28T03:23:51.655Z,37.65
2019-04-28T03:26:31.031Z,37.83
2019-04-28T03:29:24.874Z,35.48
2019-04-28T03:32:31.095Z,34.75
2019-04-28T03:34:53.937Z,38.45
2019-04-28T03:37:24.799Z,34.75
2019-04-28T03:40:00.536Z,36.23
2019-04-28T03:42:34.350Z,37.20
2019-04-28T03:45:11.268Z,38.42
2019-04-28T03:47:44.803Z,37.55
2019-04-28T03:50:20.181Z,36.53
2019-04-28T03:52:55.092Z,32.63
2019-04-28T03:55:31.697Z,36.50
2019-04-28T03:58:03.984Z,36.53
2019-04-28T04:00:40.638Z,36.95
2019-04-28T04:03:13.414Z,31.70
2019-04-28T04:05:47.014Z,36.75
2019-04-28T04:08:21.412Z,35.50
2019-04-28T04:11:05.786Z,35.70
2019-04-28T04:13:44.068Z,28.27
2019-04-28T04:16:35.527Z,35.48
2019-04-28T04:19:10.826Z,40.52
2019-04-28T04:21:44.290Z,33.05
2019-04-28T04:24:20.367Z,37.98
2019-04-28T04:26:53.329Z,33.88
2019-04-28T04:29:26.957Z,39.35
2019-04-28T04:32:13.446Z,37.73
2019-04-28T04:34:35.834Z,36.05
2019-04-28T04:37:10.425Z,48.35
2019-04-28T04:39:44.785Z,39.73
2019-04-28T04:42:20.432Z,33.55
2019-04-28T04:44:53.872Z,36.68
2019-04-28T04:47:32.183Z,35.08
2019-04-28T04:50:05.214Z,30.60
2019-04-28T04:52:40.278Z,35.43
2019-04-28T04:55:14.905Z,34.92
2019-04-28T04:57:50.617Z,33.70
2019-04-28T05:00:25.393Z,34.63
2019-04-28T05:03:00.901Z,34.70
2019-04-28T05:05:40.368Z,31.77
2019-04-28T05:08:15.587Z,33.70
2019-04-28T05:10:50.608Z,34.08
2019-04-28T05:13:24.892Z,32.88
2019-04-28T05:15:59.842Z,32.63
2019-04-28T05:18:33.763Z,30.65
2019-04-28T05:21:07.383Z,32.13
2019-04-28T05:23:42.608Z,35.68
2019-04-28T05:26:16.582Z,30.80
2019-04-28T05:28:54.151Z,32.75
2019-04-28T05:31:29.427Z,29.92
2019-04-28T05:34:08.130Z,28.32
2019-04-28T05:36:44.512Z,27.48
2019-04-28T05:39:19.462Z,30.37
2019-04-28T05:41:53.823Z,28.05
2019-04-28T05:44:27.441Z,27.87
2019-04-28T05:47:01.163Z,29.87
2019-04-28T05:49:51.479Z,30.25
2019-04-28T05:52:30.005Z,29.95
2019-04-28T05:55:12.512Z,29.12
2019-04-28T05:57:51.544Z,26.68
2019-04-28T06:00:42.457Z,27.30
2019-04-28T06:03:17.731Z,29.75
2019-04-28T06:05:52.446Z,28.92
2019-04-28T06:08:40.772Z,25.43
2019-04-28T06:11:31.064Z,26.00
2019-04-28T06:14:05.474Z,25.75
2019-04-28T06:16:40.614Z,27.93
2019-04-28T06:19:15.524Z,28.42
2019-04-28T06:21:49.504Z,27.13
2019-04-28T06:24:23.155Z,26.80
2019-04-28T06:26:58.462Z,25.77
2019-04-28T06:29:33.741Z,24.47
2019-04-28T06:32:07.337Z,25.55
2019-04-28T06:34:41.337Z,25.77
2019-04-28T06:37:15.183Z,29.95
2019-04-28T06:39:49.204Z,24.35
2019-04-28T06:42:25.002Z,27.80
2019-04-28T06:44:58.937Z,28.38
2019-04-28T06:47:32.929Z,30.08
2019-04-28T06:50:07.583Z,24.60
2019-04-28T06:52:42.185Z,29.70
2019-04-28T06:55:16.583Z,29.18
2019-04-28T06:57:50.524Z,26.87
2019-04-28T07:00:24.479Z,29.35
2019-04-28T07:02:58.162Z,25.80
2019-04-28T07:05:32.163Z,28.85
2019-04-28T07:08:05.971Z,29.90
2019-04-28T07:10:39.992Z,27.52
2019-04-28T07:13:14.717Z,27.67
2019-04-28T07:15:48.583Z,27.75
2019-04-28T07:18:22.568Z,30.10
2019-04-28T07:21:03.774Z,28.27
2019-04-28T07:23:39.230Z,30.10
2019-04-28T07:26:13.813Z,28.23
2019-04-28T07:28:47.411Z,30.10
2019-04-28T07:31:23.323Z,27.25
2019-04-28T07:33:57.343Z,28.52
2019-04-28T07:36:31.367Z,28.62
2019-04-28T07:39:07.263Z,27.60
2019-04-28T07:41:41.613Z,30.40
2019-04-28T07:44:15.451Z,31.93
2019-04-28T07:46:49.072Z,31.62
2019-04-28T07:49:23.745Z,27.87
2019-04-28T07:52:09.145Z,27.77
2019-04-28T07:54:42.599Z,29.20
2019-04-28T07:57:18.015Z,30.35
2019-04-28T07:59:51.932Z,31.23
2019-04-28T08:02:25.770Z,29.25
2019-04-28T08:04:59.784Z,29.40
2019-04-28T08:07:33.590Z,16.37
2019-04-28T08:10:07.508Z,28.77
2019-04-28T08:12:41.649Z,32.08
2019-04-28T08:15:20.079Z,30.25
2019-04-28T08:17:53.615Z,25.82
2019-04-28T08:20:27.494Z,32.93
2019-04-28T08:23:02.174Z,30.52
2019-04-28T08:25:35.913Z,31.48
2019-04-28T08:28:10.893Z,33.33
2019-04-28T08:30:44.634Z,27.25
2019-04-28T08:33:35.167Z,32.17
2019-04-28T08:36:09.086Z,16.45
2019-04-28T08:38:43.063Z,28.62
2019-04-28T08:41:18.454Z,31.57
2019-04-28T08:43:52.104Z,32.35
2019-04-28T08:46:25.942Z,34.88
2019-04-28T08:48:59.628Z,37.35
2019-04-28T08:51:33.959Z,33.50
2019-04-28T08:54:08.934Z,33.48
2019-04-28T08:56:42.718Z,33.30
2019-04-28T08:59:16.491Z,33.95
2019-04-28T09:01:50.242Z,29.67
2019-04-28T09:04:24.381Z,31.75
2019-04-28T09:06:57.911Z,27.62
2019-04-28T09:09:31.961Z,28.80
2019-04-28T09:12:07.943Z,33.55
2019-04-28T09:14:42.031Z,36.08
2019-04-28T09:17:16.165Z,30.50
2019-04-28T09:19:50.088Z,33.65
2019-04-28T09:22:23.902Z,36.90
2019-04-28T09:24:57.594Z,36.68
2019-04-28T09:27:31.403Z,37.58
2019-04-28T09:30:08.443Z,27.85
2019-04-28T09:32:45.523Z,34.03
2019-04-28T09:35:19.168Z,42.55
2019-04-28T09:37:53.232Z,40.08
2019-04-28T09:40:27.157Z,17.48
2019-04-28T09:43:11.934Z,35.23
2019-04-28T09:45:47.462Z,35.38
2019-04-28T09:48:21.452Z,35.65
2019-04-28T09:50:55.272Z,37.85
2019-04-28T09:53:28.931Z,34.40
2019-04-28T09:56:04.724Z,35.52
2019-04-28T09:58:38.989Z,37.78
2019-04-28T10:01:12.792Z,37.23
2019-04-28T10:03:47.292Z,37.65
2019-04-28T10:06:21.341Z,33.63
2019-04-28T10:08:55.541Z,33.30
2019-04-28T10:11:30.626Z,33.58
2019-04-28T10:14:06.766Z,30.20
2019-04-28T10:16:42.211Z,33.40
2019-04-28T10:19:20.428Z,22.17
2019-04-28T10:21:57.740Z,28.15
2019-04-28T10:24:31.789Z,19.23
2019-04-28T10:27:07.053Z,33.10
2019-04-28T10:29:41.144Z,34.85
2019-04-28T10:32:14.918Z,35.80
2019-04-28T10:34:54.957Z,41.08
2019-04-28T10:37:24.414Z,17.25
2019-04-28T10:40:00.494Z,38.05
2019-04-28T10:42:34.972Z,36.77
2019-04-28T10:45:10.902Z,41.35
2019-04-28T10:47:47.399Z,37.25
2019-04-28T10:50:23.205Z,31.48
2019-04-28T10:52:57.786Z,38.15
2019-04-28T10:55:32.734Z,36.48
2019-04-28T10:58:11.060Z,28.90
2019-04-28T11:00:45.116Z,38.28
2019-04-28T11:03:19.112Z,39.33
2019-04-28T11:05:54.405Z,37.80
2019-04-28T11:08:46.475Z,37.90
2019-04-28T11:11:22.340Z,37.67
2019-04-28T11:13:58.152Z,40.05
2019-04-28T11:16:34.271Z,48.38
2019-04-28T11:19:08.883Z,42.35
2019-04-28T11:21:42.743Z,33.70
2019-04-28T11:24:16.482Z,43.60
2019-04-28T11:26:50.133Z,41.48
2019-04-28T11:29:24.973Z,45.08
2019-04-28T11:31:58.832Z,47.62
2019-04-28T11:34:40.550Z,46.42
2019-04-28T11:37:14.867Z,40.08
2019-04-28T11:39:48.683Z,56.40
2019-04-28T11:42:24.256Z,44.08
2019-04-28T11:45:02.969Z,47.43
2019-04-28T11:47:37.672Z,46.02
2019-04-28T11:50:12.084Z,47.60
2019-04-28T11:52:46.039Z,52.40
2019-04-28T11:55:19.976Z,49.80
2019-04-28T11:57:53.831Z,44.90
2019-04-28T12:00:35.344Z,37.88
2019-04-28T12:03:09.526Z,45.23
2019-04-28T12:05:44.804Z,48.90
2019-04-28T12:08:19.430Z,47.93
2019-04-28T12:10:54.609Z,48.23
2019-04-28T12:13:40.290Z,52.05
2019-04-28T12:16:31.706Z,50.00
2019-04-28T12:19:10.110Z,46.65
2019-04-28T12:21:46.616Z,41.63
2019-04-28T12:24:20.809Z,45.33
2019-04-28T12:26:54.679Z,46.13
2019-04-28T12:29:28.471Z,45.12
2019-04-28T12:32:02.074Z,44.67
2019-04-28T12:34:39.368Z,45.17
2019-04-28T12:37:13.395Z,45.60
2019-04-28T12:39:47.038Z,43.28
2019-04-28T12:42:20.695Z,42.70
2019-04-28T12:44:56.942Z,40.12
2019-04-28T12:47:30.853Z,44.73
2019-04-28T12:50:26.412Z,44.18
2019-04-28T12:53:00.482Z,39.58
2019-04-28T12:55:34.386Z,39.83
2019-04-28T12:58:09.146Z,42.23
2019-04-28T13:00:53.520Z,41.35
2019-04-28T13:03:35.688Z,41.53
2019-04-28T13:06:21.201Z,42.38
2019-04-28T13:08:54.894Z,41.80
2019-04-28T13:11:34.184Z,41.92
2019-04-28T13:14:07.905Z,41.23
2019-04-28T13:16:41.826Z,41.18
2019-04-28T13:19:15.394Z,39.65
2019-04-28T13:21:49.327Z,39.30
2019-04-28T13:24:22.945Z,39.85
2019-04-28T13:26:56.955Z,37.83
2019-04-28T13:29:30.467Z,37.55
2019-04-28T13:32:04.983Z,39.13
2019-04-28T13:34:40.497Z,41.40
2019-04-28T13:37:15.184Z,37.55
2019-04-28T13:39:56.022Z,41.00
2019-04-28T13:42:31.727Z,35.85
2019-04-28T13:45:10.676Z,35.83
2019-04-28T13:47:45.691Z,38.92
2019-04-28T13:50:28.325Z,34.73
2019-04-28T13:53:08.558Z,36.53
2019-04-28T13:55:44.990Z,34.80
2019-04-28T13:58:39.998Z,36.35
2019-04-28T14:01:10.833Z,33.75
2019-04-28T14:03:53.713Z,33.15
2019-04-28T14:06:47.792Z,30.85
2019-04-28T14:09:22.112Z,33.05
2019-04-28T14:11:57.148Z,34.23
2019-04-28T14:14:30.802Z,33.70
2019-04-28T14:17:05.409Z,31.70
2019-04-28T14:19:41.635Z,33.55
2019-04-28T14:22:16.866Z,35.50
2019-04-28T14:24:52.315Z,33.80
2019-04-28T14:27:27.979Z,35.25
2019-04-28T14:30:06.435Z,32.65
2019-04-28T14:32:41.745Z,38.83
2019-04-28T14:35:16.947Z,29.75
2019-04-28T14:37:52.304Z,34.10
2019-04-28T14:40:26.143Z,34.38
2019-04-28T14:42:59.969Z,31.33
2019-04-28T14:45:35.258Z,32.60
2019-04-28T14:48:16.569Z,37.83
2019-04-28T14:50:55.093Z,36.60
2019-04-28T14:53:30.409Z,31.73
2019-04-28T14:56:07.314Z,29.32
2019-04-28T14:58:41.212Z,29.32
2019-04-28T15:01:16.493Z,29.35
2019-04-28T15:03:56.317Z,30.48
2019-04-28T15:06:37.053Z,31.45
2019-04-28T15:09:13.041Z,32.75
2019-04-28T15:11:48.673Z,32.25
2019-04-28T15:14:22.427Z,30.82
2019-04-28T15:17:09.380Z,35.38
2019-04-28T15:19:46.492Z,36.25
2019-04-28T15:22:20.515Z,34.10
2019-04-28T15:24:54.994Z,37.75
2019-04-28T15:27:28.676Z,36.58
2019-04-28T15:30:02.411Z,36.85
2019-04-28T15:32:39.835Z,37.65
2019-04-28T15:35:15.426Z,35.80
2019-04-28T15:37:49.203Z,38.50
2019-04-28T15:40:22.828Z,42.20
2019-04-28T15:42:56.331Z,33.60
2019-04-28T15:45:48.280Z,32.75
2019-04-28T15:48:22.073Z,32.90
2019-04-28T15:50:56.683Z,28.50
2019-04-28T15:53:30.735Z,30.60
2019-04-28T15:56:15.147Z,31.60
2019-04-28T15:58:49.030Z,39.63
2019-04-28T16:01:22.972Z,45.55
2019-04-28T16:03:56.836Z,46.60
2019-04-28T16:06:30.593Z,54.10
2019-04-28T16:09:10.008Z,77.80
2019-04-28T16:11:43.744Z,84.40
2019-04-28T16:14:18.445Z,47.62
2019-04-28T16:16:52.354Z,40.73
2019-04-28T16:19:26.191Z,44.98
2019-04-28T16:22:01.204Z,36.77
2019-04-28T16:24:34.795Z,32.53
2019-04-28T16:27:10.223Z,30.20
2019-04-28T16:29:44.840Z,30.85
2019-04-28T16:32:18.757Z,30.12
2019-04-28T16:34:52.664Z,26.68
2019-04-28T16:37:38.136Z,28.60
2019-04-28T16:40:06.473Z,23.75
2019-04-28T16:42:44.456Z,24.85
2019-04-28T16:45:23.896Z,27.15
2019-04-28T16:47:57.844Z,27.05
2019-04-28T16:50:31.638Z,24.43
2019-04-28T16:53:09.606Z,23.75
2019-04-28T16:55:43.892Z,24.32
2019-04-28T16:58:25.462Z,26.87
2019-04-28T17:00:59.312Z,24.02
2019-04-28T17:03:34.703Z,27.42
2019-04-28T17:06:09.274Z,27.07
2019-04-28T17:08:44.609Z,24.50
2019-04-28T17:11:19.553Z,26.95
2019-04-28T17:13:53.451Z,22.82
2019-04-28T17:16:27.350Z,23.62
2019-04-28T17:19:01.163Z,22.22
2019-04-28T17:21:34.827Z,25.88
2019-04-28T17:24:12.036Z,18.32
2019-04-28T17:26:45.552Z,19.07
2019-04-28T17:29:19.247Z,17.87
2019-04-28T17:31:52.930Z,16.95
2019-04-28T17:34:27.462Z,17.75
2019-04-28T17:37:01.054Z,16.55
2019-04-28T17:39:35.146Z,14.23
2019-04-28T17:42:10.462Z,12.78
2019-04-28T17:44:44.078Z,12.20
2019-04-28T17:47:19.220Z,13.08
2019-04-28T17:49:52.825Z,12.28
2019-04-28T17:52:27.366Z,13.68
2019-04-28T17:55:00.908Z,14.55
2019-04-28T17:57:35.670Z,14.53
2019-04-28T18:00:11.147Z,15.80
2019-04-28T18:02:55.472Z,17.15
2019-04-28T18:05:39.272Z,17.25
2019-04-28T18:08:20.802Z,16.95
2019-04-28T18:10:49.167Z,18.65
2019-04-28T18:13:23.009Z,32.80
2019-04-28T18:16:14.309Z,21.77
2019-04-28T18:18:58.417Z,20.82
2019-04-28T18:21:32.018Z,21.30
2019-04-28T18:24:05.619Z,23.07
2019-04-28T18:26:39.505Z,20.70
2019-04-28T18:29:17.132Z,25.48
2019-04-28T18:31:52.286Z,22.37
2019-04-28T18:34:25.553Z,24.70
2019-04-28T18:37:09.434Z,24.72
2019-04-28T18:40:00.648Z,27.37
2019-04-28T18:42:37.657Z,25.10
2019-04-28T18:45:12.114Z,25.97
2019-04-28T18:47:48.450Z,25.15
2019-04-28T18:50:22.021Z,28.25
2019-04-28T18:52:58.632Z,29.25
2019-04-28T18:55:32.234Z,32.78
2019-04-28T18:58:05.952Z,35.85
2019-04-28T19:00:42.044Z,31.50
2019-04-28T19:03:15.664Z,27.45
2019-04-28T19:05:50.776Z,29.80
2019-04-28T19:08:48.881Z,31.87
2019-04-28T19:11:17.902Z,34.90
2019-04-28T19:13:56.190Z,34.92
2019-04-28T19:16:34.163Z,36.42
2019-04-28T19:19:18.290Z,32.78
2019-04-28T19:21:57.951Z,31.25
2019-04-28T19:24:31.633Z,34.48
2019-04-28T19:27:05.429Z,32.98
2019-04-28T19:29:38.991Z,30.57
2019-04-28T19:32:12.599Z,27.77
2019-04-28T19:34:46.254Z,30.30
2019-04-28T19:37:19.826Z,33.90
2019-04-28T19:39:54.546Z,34.35
2019-04-28T19:42:28.108Z,56.40
2019-04-28T19:45:01.756Z,38.15
2019-04-28T19:47:36.920Z,45.05
2019-04-28T19:50:11.947Z,40.15
2019-04-28T19:52:45.532Z,35.65
2019-04-28T19:55:20.922Z,36.17
2019-04-28T19:58:11.222Z,33.35
2019-04-28T20:00:49.499Z,28.83
2019-04-28T20:03:23.100Z,25.72
2019-04-28T20:05:56.751Z,28.17
2019-04-28T20:08:30.242Z,32.85
2019-04-28T20:11:03.837Z,25.55
2019-04-28T20:13:39.061Z,32.03
2019-04-28T20:16:12.713Z,23.75
2019-04-28T20:18:49.009Z,25.97
2019-04-28T20:21:22.896Z,24.12
2019-04-28T20:23:56.547Z,22.87
2019-04-28T20:26:31.635Z,23.75
2019-04-28T20:29:05.532Z,22.52
2019-04-28T20:31:40.663Z,20.10
2019-04-28T20:34:14.242Z,20.70
2019-04-28T20:37:07.567Z,23.32
2019-04-28T20:39:43.101Z,21.93
2019-04-28T20:42:30.348Z,22.48
2019-04-28T20:45:04.489Z,23.18
2019-04-28T20:47:38.262Z,20.37
2019-04-28T20:50:12.209Z,19.90
2019-04-28T20:52:45.741Z,21.00
2019-04-28T20:55:19.742Z,22.10
2019-04-28T20:57:53.383Z,22.80
2019-04-28T21:00:27.165Z,20.72
2019-04-28T21:03:00.703Z,20.32
2019-04-28T21:05:34.372Z,22.77
2019-04-28T21:08:07.970Z,22.20
2019-04-28T21:10:41.786Z,20.90
2019-04-28T21:13:15.360Z,20.62
2019-04-28T21:15:49.080Z,21.82
2019-04-28T21:18:22.947Z,21.90
2019-04-28T21:20:56.561Z,17.52
2019-04-28T21:23:30.116Z,18.75
2019-04-28T21:26:04.695Z,15.98
2019-04-28T21:28:38.615Z,16.85
2019-04-28T21:31:12.293Z,15.90
2019-04-28T21:33:45.865Z,15.35
2019-04-28T21:36:19.446Z,15.68
2019-04-28T21:38:53.065Z,16.25
2019-04-28T21:41:26.653Z,16.00
2019-04-28T21:44:01.863Z,15.55
2019-04-28T21:46:43.102Z,17.05
2019-04-28T21:49:18.304Z,17.45
2019-04-28T21:51:53.295Z,18.23
2019-04-28T21:54:26.892Z,17.27
2019-04-28T21:57:00.514Z,16.95
2019-04-28T21:59:34.234Z,17.82
2019-04-28T22:02:07.897Z,17.45
2019-04-28T22:04:41.343Z,16.32
2019-04-28T22:07:14.988Z,18.10
2019-04-28T22:09:49.621Z,16.15
2019-04-28T22:12:23.317Z,16.15
2019-04-28T22:14:56.913Z,15.45
2019-04-28T22:17:30.557Z,15.10
2019-04-28T22:20:05.454Z,15.18
2019-04-28T22:22:39.452Z,14.13
2019-04-28T22:25:26.212Z,15.80
2019-04-28T22:27:59.831Z,15.68
2019-04-28T22:30:33.415Z,15.98
2019-04-28T22:33:07.061Z,14.30
2019-04-28T22:35:40.990Z,15.13
2019-04-28T22:38:14.583Z,14.43
2019-04-28T22:40:48.282Z,15.18
2019-04-28T22:43:21.952Z,15.60
2019-04-28T22:45:55.449Z,13.65
2019-04-28T22:48:30.203Z,17.17
2019-04-28T22:51:04.760Z,14.98
2019-04-28T22:53:38.354Z,16.95
2019-04-28T22:56:23.968Z,15.60
2019-04-28T22:59:14.343Z,13.90
2019-04-28T23:02:07.928Z,14.83
2019-04-28T23:04:44.291Z,12.30
2019-04-28T23:07:17.946Z,13.30
2019-04-28T23:09:52.453Z,13.10
2019-04-28T23:12:26.017Z,11.85
2019-04-28T23:15:01.724Z,9.50
2019-04-28T23:17:35.609Z,10.53
2019-04-28T23:20:13.806Z,9.78
2019-04-28T23:22:49.954Z,9.40
2019-04-28T23:25:24.655Z,9.05
2019-04-28T23:27:58.244Z,8.75
2019-04-28T23:30:39.188Z,9.13
2019-04-28T23:33:12.901Z,7.40
2019-04-28T23:35:50.688Z,7.10
2019-04-28T23:38:24.235Z,7.85
2019-04-28T23:40:59.384Z,8.03
2019-04-28T23:43:32.944Z,6.58
2019-04-28T23:46:13.823Z,7.08
2019-04-28T23:48:47.423Z,6.97
2019-04-28T23:51:25.789Z,7.17
2019-04-28T23:54:07.044Z,7.60
2019-04-28T23:56:49.544Z,7.12
2019-04-28T23:59:23.013Z,6.85
